Time;durP1;ratioP1;P1;durP2;ratioP2;P2;SDS_P1;SDS_P2;PMS_P1;PMS_P2;Temp;Humidity;BMP_temperature;BMP_pressure;BME280_temperature;BME280_humidity;BME280_pressure;Samples;Min_cycle;Max_cycle;Signal;HPM_P1;HPM_P2
2023/04/25 00:00:18;;;;;;;6.65;2.63;;;23.20;73.10;;;;;;4201687;28;20045;-49
2023/04/25 00:02:41;;;;;;;9.30;3.00;;;23.20;73.00;;;;;;4189446;28;20048;-48
2023/04/25 00:05:04;;;;;;;7.40;2.95;;;23.20;72.80;;;;;;4208489;28;20161;-52
2023/04/25 00:07:27;;;;;;;6.60;2.80;;;23.30;72.70;;;;;;4205224;28;20071;-48
2023/04/25 00:09:50;;;;;;;8.65;2.83;;;23.30;72.70;;;;;;4203183;28;20119;-45
2023/04/25 00:12:13;;;;;;;13.48;2.88;;;23.30;72.70;;;;;;4203846;28;20661;-47
2023/04/25 00:14:35;;;;;;;8.55;3.08;;;23.30;72.80;;;;;;4194585;28;20393;-46
2023/04/25 00:16:58;;;;;;;6.80;2.85;;;23.30;72.80;;;;;;4208115;28;20044;-51
2023/04/25 00:19:21;;;;;;;9.50;3.03;;;23.30;71.90;;;;;;4198742;28;20040;-55
2023/04/25 00:21:46;;;;;;;8.80;2.78;;;23.30;71.30;;;;;;4206553;28;20047;-60
2023/04/25 00:24:08;;;;;;;10.23;3.22;;;23.30;70.80;;;;;;4204328;28;20043;-59
2023/04/25 00:26:30;;;;;;;10.98;3.65;;;23.30;70.60;;;;;;4205593;28;20428;-59
2023/04/25 00:28:53;;;;;;;8.48;3.25;;;23.30;70.70;;;;;;4198467;28;20044;-59
2023/04/25 00:31:15;;;;;;;7.75;3.60;;;23.30;70.70;;;;;;4206608;28;20047;-62
2023/04/25 00:33:38;;;;;;;9.02;2.97;;;23.30;70.70;;;;;;4206384;28;20131;-59
2023/04/25 00:36:00;;;;;;;8.60;3.63;;;23.30;70.60;;;;;;4198729;28;20032;-60
2023/04/25 00:38:22;;;;;;;9.00;3.40;;;23.30;70.50;;;;;;4198403;28;20047;-60
2023/04/25 00:40:45;;;;;;;9.50;2.65;;;23.30;70.50;;;;;;4199668;28;20036;-59
2023/04/25 00:43:07;;;;;;;8.32;2.67;;;23.30;70.30;;;;;;4203266;28;20051;-61
2023/04/25 00:45:30;;;;;;;6.82;2.90;;;23.30;70.20;;;;;;4200971;28;20339;-61
2023/04/25 00:47:53;;;;;;;7.90;3.38;;;23.30;70.20;;;;;;4200796;28;20399;-60
2023/04/25 00:50:15;;;;;;;6.47;3.08;;;23.30;70.20;;;;;;4202979;28;20131;-59
2023/04/25 00:52:41;;;;;;;7.45;2.97;;;23.30;70.20;;;;;;4197537;28;20049;-60
2023/04/25 00:55:04;;;;;;;6.97;2.80;;;23.30;70.20;;;;;;4195075;28;20028;-60
2023/04/25 00:57:26;;;;;;;5.97;3.05;;;23.30;70.10;;;;;;4200867;28;20089;-60
2023/04/25 00:59:51;;;;;;;6.50;2.72;;;23.20;70.10;;;;;;4205340;28;20079;-58
2023/04/25 01:02:13;;;;;;;6.55;2.67;;;23.20;70.00;;;;;;4183270;28;20037;-60
2023/04/25 01:04:36;;;;;;;4.90;2.67;;;23.30;70.00;;;;;;4203123;28;20035;-60
2023/04/25 01:07:00;;;;;;;6.18;3.00;;;23.30;69.90;;;;;;4207723;28;20040;-59
2023/04/25 01:09:23;;;;;;;5.10;2.65;;;23.30;69.80;;;;;;4204634;28;20073;-57
2023/04/25 01:11:46;;;;;;;6.28;3.08;;;23.30;69.70;;;;;;4206940;28;20418;-59
2023/04/25 01:14:08;;;;;;;5.97;3.05;;;23.30;69.70;;;;;;4207327;28;20044;-58
2023/04/25 01:16:31;;;;;;;6.20;2.92;;;23.30;69.60;;;;;;4202445;28;20035;-59
2023/04/25 01:18:54;;;;;;;5.30;2.37;;;23.30;69.70;;;;;;4203270;28;20036;-58
2023/04/25 01:21:17;;;;;;;5.10;2.67;;;23.30;69.60;;;;;;4204143;28;20281;-58
2023/04/25 01:23:41;;;;;;;4.72;2.75;;;23.30;69.60;;;;;;4192139;28;20507;-60
2023/04/25 01:26:04;;;;;;;7.60;2.90;;;23.30;69.60;;;;;;4211478;28;20047;-58
2023/04/25 01:28:27;;;;;;;5.77;2.53;;;23.30;69.30;;;;;;4208688;28;20489;-59
2023/04/25 01:30:50;;;;;;;4.95;2.40;;;23.30;69.50;;;;;;4209176;28;20039;-59
2023/04/25 01:33:14;;;;;;;5.10;2.67;;;23.30;68.90;;;;;;4210026;28;20058;-58
2023/04/25 01:35:36;;;;;;;5.72;2.53;;;23.30;69.20;;;;;;4208803;28;20028;-59
2023/04/25 01:37:59;;;;;;;5.05;2.70;;;23.30;69.20;;;;;;4208106;28;20096;-59
2023/04/25 01:40:23;;;;;;;5.13;2.53;;;23.30;69.20;;;;;;4198560;28;20068;-59
2023/04/25 01:42:45;;;;;;;5.85;2.72;;;23.30;69.20;;;;;;4195372;28;20098;-58
2023/04/25 01:45:09;;;;;;;7.20;2.85;;;23.30;69.20;;;;;;4202090;28;20036;-58
2023/04/25 01:47:31;;;;;;;4.45;3.17;;;23.30;69.20;;;;;;4210181;28;20119;-58
2023/04/25 01:49:54;;;;;;;5.65;2.80;;;23.30;69.20;;;;;;4209916;28;20036;-58
2023/04/25 01:52:16;;;;;;;7.63;2.80;;;23.30;69.20;;;;;;4201165;28;20687;-59
2023/04/25 01:54:43;;;;;;;6.75;3.22;;;23.30;69.10;;;;;;4207094;28;20466;-59
2023/04/25 01:57:06;;;;;;;6.88;3.28;;;23.30;69.10;;;;;;4205796;28;20032;-58
2023/04/25 01:59:28;;;;;;;5.65;2.90;;;23.30;69.00;;;;;;4205315;28;20492;-58
2023/04/25 02:01:50;;;;;;;5.63;2.72;;;23.30;69.00;;;;;;4201432;28;20032;-59
2023/04/25 02:04:13;;;;;;;6.25;2.85;;;23.30;69.00;;;;;;4204789;28;20051;-59
2023/04/25 02:06:35;;;;;;;5.00;2.65;;;23.30;68.90;;;;;;4203255;28;20460;-59
2023/04/25 02:08:58;;;;;;;6.20;3.28;;;23.30;68.90;;;;;;4207779;28;20066;-58
2023/04/25 02:11:20;;;;;;;6.38;3.10;;;23.30;68.80;;;;;;4199198;28;20043;-58
2023/04/25 02:13:42;;;;;;;6.45;2.80;;;23.40;68.90;;;;;;4206627;28;20052;-59
2023/04/25 02:16:05;;;;;;;5.65;3.30;;;23.40;68.70;;;;;;4183746;28;20467;-60
2023/04/25 02:18:28;;;;;;;6.38;3.10;;;23.40;68.70;;;;;;4211418;28;20483;-59
2023/04/25 02:20:50;;;;;;;5.80;3.00;;;23.40;68.60;;;;;;4210210;28;20480;-57
2023/04/25 02:23:15;;;;;;;5.15;2.80;;;23.40;68.50;;;;;;4209297;28;20093;-58
2023/04/25 02:25:37;;;;;;;4.88;2.83;;;23.40;68.20;;;;;;4210301;28;20040;-58
2023/04/25 02:28:00;;;;;;;7.10;2.95;;;23.40;68.60;;;;;;4203768;28;20040;-58
2023/04/25 02:30:22;;;;;;;5.03;3.22;;;23.40;68.60;;;;;;4188107;28;20086;-58
2023/04/25 02:32:44;;;;;;;6.63;3.00;;;23.40;68.60;;;;;;4206509;28;20494;-59
2023/04/25 02:35:07;;;;;;;4.05;2.53;;;23.40;68.60;;;;;;4209780;28;20085;-58
2023/04/25 02:37:34;;;;;;;4.53;2.83;;;23.40;68.60;;;;;;4201503;28;20043;-58
2023/04/25 02:39:57;;;;;;;5.00;2.63;;;23.40;68.60;;;;;;4207296;28;20040;-58
2023/04/25 02:42:19;;;;;;;5.72;3.03;;;23.40;68.60;;;;;;4206248;28;20040;-58
2023/04/25 02:44:42;;;;;;;6.28;2.67;;;23.40;68.70;;;;;;4206765;28;20051;-58
2023/04/25 02:47:04;;;;;;;5.38;3.10;;;23.40;68.60;;;;;;4206530;28;20039;-58
2023/04/25 02:49:26;;;;;;;5.35;3.05;;;23.40;68.60;;;;;;4208791;28;20188;-58
2023/04/25 02:51:49;;;;;;;5.18;2.90;;;23.40;68.60;;;;;;4184590;28;20045;-58
2023/04/25 02:54:11;;;;;;;6.20;3.03;;;23.40;68.50;;;;;;4204024;28;20028;-59
2023/04/25 02:56:34;;;;;;;6.00;2.83;;;23.40;68.40;;;;;;4203958;28;20479;-58
2023/04/25 02:58:56;;;;;;;6.38;3.10;;;23.40;68.30;;;;;;4194528;28;20106;-59
2023/04/25 03:01:18;;;;;;;5.90;2.85;;;23.50;68.20;;;;;;4207871;28;20071;-59
2023/04/25 03:03:41;;;;;;;5.03;2.95;;;23.50;68.20;;;;;;4199141;28;20028;-57
2023/04/25 03:06:03;;;;;;;5.47;2.80;;;23.50;68.10;;;;;;4206262;28;20044;-59
2023/04/25 03:08:29;;;;;;;5.15;3.17;;;23.50;68.00;;;;;;4203567;28;20032;-58
2023/04/25 03:10:55;;;;;;;5.90;2.90;;;23.50;68.10;;;;;;4189390;28;20559;-60
2023/04/25 03:13:17;;;;;;;5.80;3.10;;;23.50;68.00;;;;;;4204753;28;20519;-60
2023/04/25 03:15:40;;;;;;;4.03;2.42;;;23.50;68.00;;;;;;4190803;28;20032;-58
2023/04/25 03:18:02;;;;;;;6.22;3.28;;;23.60;68.20;;;;;;4203286;28;20334;-59
2023/04/25 03:20:25;;;;;;;5.88;2.85;;;23.50;68.20;;;;;;4193301;28;20055;-57
2023/04/25 03:22:48;;;;;;;5.57;2.67;;;23.50;68.20;;;;;;4199658;28;20139;-58
2023/04/25 03:25:10;;;;;;;4.82;2.80;;;23.50;68.20;;;;;;4206464;28;20559;-57
2023/04/25 03:27:33;;;;;;;4.93;2.47;;;23.50;68.20;;;;;;4190040;28;20677;-58
2023/04/25 03:29:55;;;;;;;5.60;2.55;;;23.50;68.20;;;;;;4199509;28;20152;-57
2023/04/25 03:32:17;;;;;;;5.22;3.08;;;23.60;68.30;;;;;;4206498;28;20051;-58
2023/04/25 03:34:40;;;;;;;5.07;2.65;;;23.50;68.30;;;;;;4177695;28;20051;-57
2023/04/25 03:37:03;;;;;;;5.70;2.80;;;23.50;68.20;;;;;;4199813;28;20515;-58
2023/04/25 03:39:25;;;;;;;5.35;3.00;;;23.50;68.20;;;;;;4208679;28;20501;-57
2023/04/25 03:41:48;;;;;;;5.88;2.97;;;23.50;68.30;;;;;;4196162;28;20036;-58
2023/04/25 03:44:10;;;;;;;5.22;2.88;;;23.50;68.30;;;;;;4206509;28;20252;-58
2023/04/25 03:46:32;;;;;;;4.88;2.60;;;23.50;68.30;;;;;;4199693;28;20032;-58
2023/04/25 03:48:55;;;;;;;6.35;2.92;;;23.50;68.30;;;;;;4186644;28;20488;-58
2023/04/25 03:51:17;;;;;;;4.68;2.35;;;23.50;68.30;;;;;;4188457;28;20037;-59
2023/04/25 03:53:40;;;;;;;5.10;2.90;;;23.50;68.30;;;;;;4185874;28;20063;-58
2023/04/25 03:56:02;;;;;;;6.05;3.00;;;23.50;68.30;;;;;;4177381;28;20039;-57
2023/04/25 03:58:25;;;;;;;5.18;2.70;;;23.50;68.30;;;;;;4191037;28;20094;-58
2023/04/25 04:00:47;;;;;;;4.78;2.50;;;23.50;68.40;;;;;;4192733;28;20033;-58
2023/04/25 04:03:10;;;;;;;5.00;2.55;;;23.50;68.30;;;;;;4191601;28;20376;-58
2023/04/25 04:05:33;;;;;;;6.75;2.80;;;23.50;68.30;;;;;;4179690;28;20512;-57
2023/04/25 04:07:55;;;;;;;5.53;2.70;;;23.50;68.30;;;;;;4191048;28;20040;-58
2023/04/25 04:10:18;;;;;;;5.10;2.92;;;23.50;68.40;;;;;;4196895;28;20067;-58
2023/04/25 04:12:40;;;;;;;5.22;2.60;;;23.50;68.40;;;;;;4192278;28;20444;-58
2023/04/25 04:15:04;;;;;;;4.80;2.60;;;23.50;68.40;;;;;;4191821;28;20638;-58
2023/04/25 04:17:27;;;;;;;4.45;2.63;;;23.60;68.40;;;;;;4202711;28;20079;-57
2023/04/25 04:19:49;;;;;;;3.70;2.40;;;23.60;68.40;;;;;;4189175;28;20415;-57
2023/04/25 04:22:12;;;;;;;7.43;2.67;;;23.60;68.40;;;;;;4186925;28;20035;-58
2023/04/25 04:24:34;;;;;;;4.82;2.30;;;23.60;68.40;;;;;;4197819;28;20103;-58
2023/04/25 04:26:57;;;;;;;5.65;3.05;;;23.60;68.30;;;;;;4189051;28;20082;-57
2023/04/25 04:29:22;;;;;;;4.82;2.55;;;23.60;68.30;;;;;;4189778;28;20045;-57
2023/04/25 04:31:45;;;;;;;4.07;2.42;;;23.60;68.20;;;;;;4168075;28;20048;-57
2023/04/25 04:34:07;;;;;;;4.38;2.47;;;23.60;68.20;;;;;;4190609;28;20427;-58
2023/04/25 04:36:30;;;;;;;5.20;3.05;;;23.60;68.10;;;;;;4184780;28;20629;-58
2023/04/25 04:38:53;;;;;;;5.38;2.90;;;23.60;68.10;;;;;;4190900;28;20029;-58
2023/04/25 04:41:16;;;;;;;4.73;2.70;;;23.60;68.20;;;;;;4186646;28;20091;-58
2023/04/25 04:43:39;;;;;;;3.80;2.47;;;23.70;68.10;;;;;;4188138;28;20792;-57
2023/04/25 04:46:03;;;;;;;4.00;2.63;;;23.70;67.90;;;;;;4190819;28;20040;-58
2023/04/25 04:48:25;;;;;;;;;;;23.80;67.80;;;;;;4189665;28;20057;-58
2023/04/25 04:50:47;;;;;;;6.07;2.58;;;23.80;67.80;;;;;;4187695;28;19935;-57
2023/04/25 04:53:10;;;;;;;4.85;2.42;;;23.80;67.70;;;;;;4176832;28;20048;-58
2023/04/25 04:55:32;;;;;;;6.18;2.40;;;23.80;67.70;;;;;;4190786;28;20093;-58
2023/04/25 04:57:55;;;;;;;5.68;2.67;;;23.80;67.70;;;;;;4187820;28;20071;-58
2023/04/25 05:00:18;;;;;;;5.00;2.42;;;23.80;67.80;;;;;;4197562;28;20042;-57
2023/04/25 05:02:40;;;;;;;4.30;2.42;;;23.80;67.80;;;;;;4187320;28;20032;-58
2023/04/25 05:05:02;;;;;;;4.72;2.55;;;23.70;67.80;;;;;;4194889;28;20598;-57
2023/04/25 05:07:25;;;;;;;5.00;2.63;;;23.70;67.80;;;;;;4192564;28;20063;-58
2023/04/25 05:09:47;;;;;;;4.13;2.60;;;23.70;67.90;;;;;;4188729;28;20036;-57
2023/04/25 05:12:10;;;;;;;3.65;2.03;;;23.70;67.90;;;;;;4183323;28;20126;-59
2023/04/25 05:14:32;;;;;;;4.18;2.45;;;23.70;67.90;;;;;;4188038;28;20033;-59
2023/04/25 05:16:54;;;;;;;4.78;2.50;;;23.70;67.90;;;;;;4164095;28;20041;-59
2023/04/25 05:19:17;;;;;;;4.78;2.70;;;23.70;67.90;;;;;;4186213;28;20127;-58
2023/04/25 05:21:40;;;;;;;3.88;2.72;;;23.70;68.00;;;;;;4185947;28;20033;-59
2023/04/25 05:24:02;;;;;;;4.30;2.65;;;23.70;68.00;;;;;;4199468;28;20452;-59
2023/04/25 05:26:25;;;;;;;4.57;2.30;;;23.70;67.90;;;;;;4194357;28;20131;-59
2023/04/25 05:28:47;;;;;;;3.60;2.38;;;23.60;67.90;;;;;;4186353;28;20044;-59
2023/04/25 05:31:13;;;;;;;4.10;2.30;;;23.70;68.00;;;;;;4186858;28;20041;-58
2023/04/25 05:33:35;;;;;;;4.18;2.60;;;23.60;68.00;;;;;;4192840;28;20075;-58
2023/04/25 05:35:57;;;;;;;4.03;2.47;;;23.60;67.90;;;;;;4189917;28;20047;-58
2023/04/25 05:38:20;;;;;;;4.85;2.40;;;23.70;68.00;;;;;;4188363;28;20048;-58
2023/04/25 05:40:42;;;;;;;5.03;2.60;;;23.70;68.00;;;;;;4187963;28;20504;-58
2023/04/25 05:43:05;;;;;;;5.75;2.20;;;23.70;68.00;;;;;;4188049;28;20040;-58
2023/04/25 05:45:27;;;;;;;4.72;2.10;;;23.70;68.20;;;;;;4186209;28;20124;-58
2023/04/25 05:47:50;;;;;;;3.85;2.35;;;23.80;68.10;;;;;;4191454;28;20067;-58
2023/04/25 05:50:12;;;;;;;4.57;2.33;;;23.80;67.80;;;;;;4188033;28;20033;-58
2023/04/25 05:52:35;;;;;;;4.50;2.00;;;23.90;67.70;;;;;;4189397;28;20053;-58
2023/04/25 05:54:57;;;;;;;3.63;2.30;;;23.90;67.40;;;;;;4190408;28;20077;-58
2023/04/25 05:57:24;;;;;;;4.55;2.22;;;24.00;67.20;;;;;;4191883;28;20114;-58
2023/04/25 05:59:47;;;;;;;3.88;2.10;;;24.10;67.10;;;;;;4187628;28;20032;-57
2023/04/25 06:02:09;;;;;;;3.65;2.40;;;24.10;66.70;;;;;;4181862;28;20040;-59
2023/04/25 06:04:31;;;;;;;3.58;2.45;;;24.20;66.60;;;;;;4187910;28;20070;-59
2023/04/25 06:06:54;;;;;;;4.78;2.20;;;24.30;66.40;;;;;;4180381;28;20327;-58
2023/04/25 06:09:16;;;;;;;4.55;2.40;;;24.30;66.20;;;;;;4178245;28;20127;-59
2023/04/25 06:11:39;;;;;;;4.43;2.45;;;24.40;66.60;;;;;;4181330;28;20186;-59
2023/04/25 06:14:02;;;;;;;4.60;1.80;;;24.40;66.60;;;;;;4178969;28;20123;-59
2023/04/25 06:16:25;;;;;;;4.65;2.28;;;24.40;66.30;;;;;;4178731;28;20036;-59
2023/04/25 06:18:48;;;;;;;4.13;2.15;;;24.40;66.40;;;;;;4182515;28;20480;-59
2023/04/25 06:21:10;;;;;;;3.45;1.92;;;24.40;66.20;;;;;;4185019;28;20328;-59
2023/04/25 06:23:33;;;;;;;5.72;2.03;;;24.40;66.10;;;;;;4181970;28;20087;-59
2023/04/25 06:25:56;;;;;;;4.38;2.13;;;24.30;65.90;;;;;;4168838;28;20040;-59
2023/04/25 06:28:19;;;;;;;3.22;1.83;;;24.30;66.00;;;;;;4179370;28;20039;-59
2023/04/25 06:30:41;;;;;;;4.53;2.50;;;24.30;66.10;;;;;;4182603;28;20086;-59
2023/04/25 06:33:04;;;;;;;4.45;2.20;;;24.30;66.00;;;;;;4181741;28;20051;-59
2023/04/25 06:35:27;;;;;;;4.10;2.10;;;24.30;66.00;;;;;;4178673;28;20040;-59
2023/04/25 06:37:49;;;;;;;4.97;2.00;;;24.30;66.00;;;;;;4164014;28;20034;-59
2023/04/25 06:40:12;;;;;;;3.72;2.17;;;24.30;65.90;;;;;;4185539;28;20032;-60
2023/04/25 06:42:34;;;;;;;4.10;2.00;;;24.30;65.90;;;;;;4162859;28;20045;-60
2023/04/25 06:44:57;;;;;;;3.10;2.13;;;24.40;65.90;;;;;;4179067;28;20115;-60
2023/04/25 06:47:19;;;;;;;4.40;2.22;;;24.40;65.90;;;;;;4173316;28;20048;-60
2023/04/25 06:49:42;;;;;;;3.50;1.80;;;24.40;65.70;;;;;;4168457;28;20045;-61
2023/04/25 06:52:04;;;;;;;4.35;2.45;;;24.40;65.50;;;;;;4180338;28;20051;-60
2023/04/25 06:54:29;;;;;;;4.95;2.47;;;24.40;65.40;;;;;;4187372;28;20123;-61
2023/04/25 06:56:52;;;;;;;3.88;1.92;;;24.40;65.40;;;;;;4180282;28;20079;-59
2023/04/25 06:59:15;;;;;;;4.07;2.00;;;24.40;65.40;;;;;;4184239;28;20040;-59
2023/04/25 07:01:37;;;;;;;4.25;2.65;;;24.40;65.40;;;;;;4164998;28;20579;-58
2023/04/25 07:04:00;;;;;;;5.07;2.00;;;24.40;65.50;;;;;;4171851;28;20459;-59
2023/04/25 07:06:22;;;;;;;2.95;1.92;;;24.30;65.60;;;;;;4178631;28;20496;-59
2023/04/25 07:08:44;;;;;;;4.80;2.40;;;24.20;65.70;;;;;;4173079;28;20545;-60
2023/04/25 07:11:07;;;;;;;4.85;2.30;;;24.20;65.90;;;;;;4164378;28;20035;-59
2023/04/25 07:13:29;;;;;;;3.78;2.00;;;24.10;66.00;;;;;;4173403;28;20059;-59
2023/04/25 07:15:52;;;;;;;5.68;2.13;;;24.10;66.20;;;;;;4173625;28;20044;-59
2023/04/25 07:18:15;;;;;;;3.72;1.88;;;24.00;66.30;;;;;;4176580;28;20118;-59
2023/04/25 07:20:37;;;;;;;5.00;2.50;;;24.00;66.40;;;;;;4178063;28;20413;-58
2023/04/25 07:23:00;;;;;;;3.38;2.20;;;24.00;66.50;;;;;;4175267;28;20551;-59
2023/04/25 07:25:22;;;;;;;3.63;2.05;;;23.90;66.60;;;;;;4179285;28;20271;-58
2023/04/25 07:27:44;;;;;;;3.90;2.05;;;23.90;66.60;;;;;;4187185;28;20488;-59
2023/04/25 07:30:08;;;;;;;4.53;2.10;;;23.90;66.60;;;;;;4198002;22;20810;-49
2023/04/25 07:32:30;;;;;;;4.22;2.17;;;23.90;66.70;;;;;;4171105;28;20091;-48
2023/04/25 07:34:53;;;;;;;3.50;1.98;;;23.90;66.80;;;;;;4164879;28;20144;-54
2023/04/25 07:37:15;;;;;;;3.63;1.90;;;23.80;66.80;;;;;;4165974;28;20492;-51
2023/04/25 07:39:38;;;;;;;4.35;2.03;;;23.80;66.80;;;;;;4173166;28;20123;-49
2023/04/25 07:42:02;;;;;;;3.90;1.95;;;23.80;67.00;;;;;;4156429;28;20048;-49
2023/04/25 07:44:25;;;;;;;3.78;2.15;;;23.80;67.00;;;;;;4153114;28;20033;-51
2023/04/25 07:46:48;;;;;;;5.00;2.30;;;23.80;67.10;;;;;;4168693;28;20037;-50
2023/04/25 07:49:10;;;;;;;5.07;2.50;;;23.80;67.20;;;;;;4170639;28;20075;-50
2023/04/25 07:51:33;;;;;;;4.88;2.15;;;23.70;67.20;;;;;;4175126;28;20065;-51
2023/04/25 07:53:59;;;;;;;3.38;2.10;;;23.70;67.20;;;;;;4176812;28;20053;-45
2023/04/25 07:56:21;;;;;;;;;;;23.70;67.30;;;;;;4158314;28;20052;-46
2023/04/25 07:58:44;;;;;;;3.25;1.88;;;23.70;67.40;;;;;;4168176;28;19908;-51
2023/04/25 08:01:06;;;;;;;5.43;2.47;;;23.60;67.30;;;;;;4170128;28;20522;-51
2023/04/25 08:03:29;;;;;;;5.72;3.15;;;23.60;67.40;;;;;;4172866;28;20038;-52
2023/04/25 08:05:51;;;;;;;5.45;2.20;;;23.60;67.40;;;;;;4170349;28;20052;-47
2023/04/25 08:08:14;;;;;;;4.05;2.25;;;23.60;67.60;;;;;;4168623;28;20049;-51
2023/04/25 08:10:36;;;;;;;6.13;2.90;;;23.60;67.60;;;;;;4164211;28;20052;-51
2023/04/25 08:12:59;;;;;;;4.93;2.33;;;23.60;67.60;;;;;;4168499;28;20416;-51
2023/04/25 08:15:22;;;;;;;5.23;2.60;;;23.60;67.70;;;;;;4171985;28;20028;-53
2023/04/25 08:17:45;;;;;;;4.03;2.08;;;23.50;67.70;;;;;;4168738;28;20745;-52
2023/04/25 08:20:08;;;;;;;4.65;2.40;;;23.50;67.70;;;;;;4172640;28;20732;-50
2023/04/25 08:22:31;;;;;;;4.10;2.45;;;23.50;67.70;;;;;;4155645;28;20037;-52
2023/04/25 08:24:54;;;;;;;3.97;2.50;;;23.50;67.80;;;;;;4159765;28;20056;-53
2023/04/25 08:27:16;;;;;;;4.80;2.42;;;23.50;67.90;;;;;;4164778;28;20120;-51
2023/04/25 08:29:38;;;;;;;4.97;2.58;;;23.50;67.90;;;;;;4163420;28;20566;-51
2023/04/25 08:32:01;;;;;;;6.10;2.80;;;23.40;67.80;;;;;;4166654;28;20314;-50
2023/04/25 08:34:23;;;;;;;6.60;2.83;;;23.40;67.90;;;;;;4171943;28;20036;-51
2023/04/25 08:36:46;;;;;;;5.97;2.88;;;23.40;67.90;;;;;;4172576;28;20404;-51
2023/04/25 08:39:08;;;;;;;7.10;2.75;;;23.40;67.90;;;;;;4172662;28;20568;-51
2023/04/25 08:41:31;;;;;;;5.53;2.70;;;23.40;67.90;;;;;;4167933;28;20047;-52
2023/04/25 08:43:56;;;;;;;4.68;2.35;;;23.40;67.90;;;;;;4160963;28;20041;-51
2023/04/25 08:46:19;;;;;;;5.55;2.70;;;23.40;67.90;;;;;;4157941;28;20436;-47
2023/04/25 08:48:44;;;;;;;5.88;2.75;;;23.30;67.90;;;;;;4164869;28;20504;-48
2023/04/25 08:51:09;;;;;;;4.90;2.42;;;23.40;67.90;;;;;;4172679;28;20037;-50
2023/04/25 08:53:33;;;;;;;4.93;2.40;;;23.40;67.90;;;;;;4149605;28;20049;-53
2023/04/25 08:55:58;;;;;;;5.85;2.80;;;23.30;67.90;;;;;;4173565;28;20492;-46
2023/04/25 08:58:21;;;;;;;5.82;2.53;;;23.30;67.90;;;;;;4161370;28;20041;-49
2023/04/25 09:00:43;;;;;;;6.03;2.87;;;23.30;68.20;;;;;;4168312;28;20037;-51
2023/04/25 09:03:06;;;;;;;5.60;2.50;;;23.30;67.90;;;;;;4164413;28;20545;-48
2023/04/25 09:05:29;;;;;;;6.10;2.88;;;23.30;67.90;;;;;;4173839;28;20037;-50
2023/04/25 09:07:51;;;;;;;6.05;2.65;;;23.30;67.90;;;;;;4170051;28;20041;-48
2023/04/25 09:10:14;;;;;;;5.60;3.03;;;23.30;67.90;;;;;;4161788;28;20132;-50
2023/04/25 09:12:37;;;;;;;5.57;2.60;;;23.30;67.90;;;;;;4159480;28;20084;-51
2023/04/25 09:15:17;;;;;;;5.17;2.70;;;23.30;67.90;;;;;;4145404;28;20070;-53
2023/04/25 09:17:44;;;;;;;5.38;2.50;;;23.30;67.90;;;;;;4159578;28;20270;-52
2023/04/25 09:20:11;;;;;;;5.32;2.53;;;23.30;67.90;;;;;;4163693;28;20084;-50
2023/04/25 09:22:33;;;;;;;5.05;2.60;;;23.20;67.80;;;;;;4149652;28;20045;-50
2023/04/25 09:24:55;;;;;;;6.03;2.42;;;23.20;67.70;;;;;;4159039;28;20119;-53
2023/04/25 09:27:26;;;;;;;6.35;2.97;;;23.20;67.70;;;;;;4165062;28;20029;-54
2023/04/25 09:29:56;;;;;;;4.38;2.35;;;23.20;67.70;;;;;;4173229;28;20308;-50
2023/04/25 09:32:23;;;;;;;5.55;2.58;;;23.20;67.80;;;;;;4168715;28;20046;-46
2023/04/25 09:34:52;;;;;;;7.13;3.10;;;23.20;67.80;;;;;;4164227;28;20475;-50
2023/04/25 09:37:25;;;;;;;6.60;3.03;;;23.20;67.80;;;;;;4168659;28;20071;-53
2023/04/25 09:39:56;;;;;;;6.63;2.72;;;23.20;67.90;;;;;;4166548;28;20042;-51
2023/04/25 09:42:22;;;;;;;5.15;2.90;;;23.20;67.80;;;;;;4171660;28;20040;-52
2023/04/25 09:44:46;;;;;;;7.53;2.70;;;23.10;67.50;;;;;;4165137;28;20040;-50
2023/04/25 09:47:12;;;;;;;5.13;2.80;;;23.10;67.70;;;;;;4149562;28;20061;-52
2023/04/25 09:49:34;;;;;;;5.53;2.80;;;23.10;67.80;;;;;;4151604;28;20648;-46
2023/04/25 09:51:58;;;;;;;6.07;3.03;;;23.10;67.80;;;;;;4149479;28;20553;-52
2023/04/25 09:54:20;;;;;;;6.93;3.35;;;23.10;67.70;;;;;;4160566;28;20041;-49
2023/04/25 09:56:44;;;;;;;6.15;3.15;;;23.10;67.80;;;;;;4159016;28;20029;-52
2023/04/25 09:59:07;;;;;;;6.15;2.83;;;23.10;67.80;;;;;;4152238;28;20048;-52
2023/04/25 10:01:30;;;;;;;7.30;3.42;;;23.00;67.80;;;;;;4156884;28;20037;-53
2023/04/25 10:03:56;;;;;;;6.33;3.67;;;23.00;67.70;;;;;;4160506;28;20744;-49
2023/04/25 10:06:22;;;;;;;6.50;2.95;;;23.00;67.80;;;;;;4167154;28;20097;-49
2023/04/25 10:08:46;;;;;;;5.60;3.13;;;23.00;67.70;;;;;;4165357;28;20052;-48
2023/04/25 10:11:08;;;;;;;;;;;23.00;67.60;;;;;;4166151;28;20049;-51
2023/04/25 10:13:31;;;;;;;7.65;3.15;;;23.00;67.80;;;;;;4157122;28;20048;-53
2023/04/25 10:15:56;;;;;;;6.27;3.37;;;23.00;67.80;;;;;;4161518;28;20080;-48
2023/04/25 10:18:19;;;;;;;6.53;3.58;;;23.00;67.60;;;;;;4150761;28;20029;-45
2023/04/25 10:20:42;;;;;;;7.07;3.47;;;23.00;67.70;;;;;;4151798;28;20048;-48
2023/04/25 10:23:11;;;;;;;5.57;3.33;;;22.90;67.60;;;;;;4163858;28;20033;-51
2023/04/25 10:25:34;;;;;;;6.72;3.38;;;22.90;67.70;;;;;;4170855;28;20498;-51
2023/04/25 10:27:59;;;;;;;6.43;3.23;;;22.90;67.60;;;;;;4156242;28;20048;-51
2023/04/25 10:30:22;;;;;;;6.65;3.65;;;22.90;67.70;;;;;;4165256;28;20348;-51
2023/04/25 10:32:45;;;;;;;6.70;3.55;;;22.90;67.60;;;;;;4148629;28;20755;-54
2023/04/25 10:35:15;;;;;;;7.13;3.58;;;22.90;67.60;;;;;;4168031;28;20036;-49
2023/04/25 10:37:38;;;;;;;6.45;3.40;;;22.90;67.60;;;;;;4162635;28;20396;-51
2023/04/25 10:40:09;;;;;;;6.38;3.10;;;22.90;67.60;;;;;;4165994;28;20036;-51
2023/04/25 10:42:32;;;;;;;7.35;4.22;;;22.90;67.60;;;;;;4162734;28;20437;-52
2023/04/25 10:45:06;;;;;;;7.50;3.45;;;22.90;67.60;;;;;;4165301;28;20049;-48
2023/04/25 10:47:44;;;;;;;;;;;22.90;67.70;;;;;;4165859;28;20037;-52
2023/04/25 10:50:10;;;;;;;6.25;3.28;;;22.90;67.70;;;;;;4166537;28;20360;-52
2023/04/25 10:52:34;;;;;;;7.25;3.60;;;22.80;67.60;;;;;;4167174;28;20534;-47
2023/04/25 10:54:58;;;;;;;6.45;3.67;;;22.80;67.60;;;;;;4164370;28;20107;-49
2023/04/25 10:57:43;;;;;;;8.27;3.70;;;22.90;67.60;;;;;;4163460;28;20053;-50
2023/04/25 11:00:11;;;;;;;5.90;3.35;;;22.80;67.60;;;;;;4159220;28;20179;-48
2023/04/25 11:02:41;;;;;;;6.60;3.58;;;22.80;67.50;;;;;;4160878;28;20060;-50
2023/04/25 11:05:04;;;;;;;8.13;3.60;;;22.80;67.50;;;;;;4158652;28;20707;-47
2023/04/25 11:07:44;;;;;;;6.63;3.47;;;22.80;67.60;;;;;;4159399;28;20548;-47
2023/04/25 11:10:07;;;;;;;13.25;4.10;;;22.80;67.50;;;;;;4159900;28;20033;-48
2023/04/25 11:12:31;;;;;;;11.68;4.60;;;22.80;67.60;;;;;;4159631;28;20627;-49
2023/04/25 11:15:08;;;;;;;10.93;4.35;;;22.80;67.80;;;;;;4159606;28;20030;-52
2023/04/25 11:17:31;;;;;;;16.08;4.65;;;22.80;68.00;;;;;;4154312;28;20401;-51
2023/04/25 11:19:56;;;;;;;14.57;4.47;;;22.80;68.10;;;;;;4160711;28;20409;-51
2023/04/25 11:22:21;;;;;;;10.25;4.57;;;22.80;68.20;;;;;;4156824;28;20037;-51
2023/04/25 11:24:44;;;;;;;10.07;4.32;;;22.90;68.40;;;;;;4157006;28;20037;-47
2023/04/25 11:27:06;;;;;;;10.30;4.18;;;22.90;68.30;;;;;;4160597;28;20037;-49
2023/04/25 11:29:30;;;;;;;10.85;4.20;;;22.90;68.20;;;;;;4168909;28;20460;-49
2023/04/25 11:31:53;;;;;;;;;;;22.90;68.10;;;;;;4151540;28;20037;-48
2023/04/25 11:34:22;;;;;;;8.73;3.75;;;22.90;68.10;;;;;;4160855;28;19924;-47
2023/04/25 11:36:46;;;;;;;8.40;3.88;;;22.90;68.40;;;;;;4168433;28;20056;-47
2023/04/25 11:39:08;;;;;;;8.75;4.05;;;23.00;68.60;;;;;;4162754;28;20037;-45
2023/04/25 11:41:31;;;;;;;9.50;4.43;;;23.00;68.60;;;;;;4171882;28;20041;-49
2023/04/25 11:43:54;;;;;;;7.50;3.95;;;23.00;68.60;;;;;;4153160;28;20048;-46
2023/04/25 11:46:19;;;;;;;8.30;4.18;;;23.00;68.40;;;;;;4153637;28;20073;-46
2023/04/25 11:48:42;;;;;;;9.40;3.97;;;23.10;68.50;;;;;;4146439;28;20140;-51
2023/04/25 11:51:06;;;;;;;7.75;3.78;;;23.10;68.60;;;;;;4152679;28;20575;-49
2023/04/25 11:53:28;;;;;;;7.88;3.83;;;23.10;68.60;;;;;;4144219;28;20053;-47
2023/04/25 11:55:51;;;;;;;9.98;3.90;;;23.10;68.60;;;;;;4157933;28;20119;-47
2023/04/25 11:58:15;;;;;;;7.10;3.60;;;23.10;68.70;;;;;;4155138;28;20080;-50
2023/04/25 12:00:37;;;;;;;;;;;23.10;68.60;;;;;;4160895;28;20382;-46
2023/04/25 12:03:02;;;;;;;7.90;3.60;;;23.10;68.60;;;;;;4159978;28;19912;-44
2023/04/25 12:05:33;;;;;;;8.27;4.28;;;23.10;68.60;;;;;;4163052;28;20037;-47
2023/04/25 12:07:55;;;;;;;8.05;3.67;;;23.10;68.50;;;;;;4163495;28;20087;-48
2023/04/25 12:10:21;;;;;;;7.00;3.75;;;23.20;68.40;;;;;;4159164;28;20052;-46
2023/04/25 12:12:45;;;;;;;8.20;3.70;;;23.20;68.50;;;;;;4161108;28;20064;-47
2023/04/25 12:15:15;;;;;;;7.20;3.83;;;23.20;68.50;;;;;;4152732;28;20103;-47
2023/04/25 12:17:48;;;;;;;6.97;3.13;;;23.20;68.30;;;;;;4156726;28;20291;-50
2023/04/25 12:20:16;;;;;;;7.38;3.67;;;23.20;68.30;;;;;;4158319;28;20372;-48
2023/04/25 12:22:40;;;;;;;6.70;3.40;;;23.20;68.30;;;;;;4158292;28;20041;-47
2023/04/25 12:25:04;;;;;;;7.65;3.33;;;23.20;68.10;;;;;;4159063;28;20080;-47
2023/04/25 12:27:27;;;;;;;;;;;23.30;68.10;;;;;;4139475;28;20045;-51